sensor_id;sensor_type;location;lat;lon;timestamp;temperature;humidity
67603;DHT22;54417;47.454;18.918;2023-04-28T00:00:51;0.90;84.89
67603;DHT22;54417;47.454;18.918;2023-04-28T00:06:00;0.88;85.16
67603;DHT22;54417;47.454;18.918;2023-04-28T00:11:09;0.85;85.47
67603;DHT22;54417;47.454;18.918;2023-04-28T00:16:19;0.95;85.18
67603;DHT22;54417;47.454;18.918;2023-04-28T00:21:23;0.89;85.65
67603;DHT22;54417;47.454;18.918;2023-04-28T00:26:27;0.93;85.38
67603;DHT22;54417;47.454;18.918;2023-04-28T00:31:32;1.10;84.70
67603;DHT22;54417;47.454;18.918;2023-04-28T00:36:41;1.12;84.48
67603;DHT22;54417;47.454;18.918;2023-04-28T00:41:50;0.99;85.07
67603;DHT22;54417;47.454;18.918;2023-04-28T00:47:00;0.83;86.26
67603;DHT22;54417;47.454;18.918;2023-04-28T00:52:05;0.79;86.21
67603;DHT22;54417;47.454;18.918;2023-04-28T00:57:14;0.68;86.45
67603;DHT22;54417;47.454;18.918;2023-04-28T01:02:24;0.61;87.23
67603;DHT22;54417;47.454;18.918;2023-04-28T01:07:31;0.54;87.65
67603;DHT22;54417;47.454;18.918;2023-04-28T01:12:37;0.48;87.81
67603;DHT22;54417;47.454;18.918;2023-04-28T01:17:48;0.48;87.01
67603;DHT22;54417;47.454;18.918;2023-04-28T01:22:57;0.58;86.28
67603;DHT22;54417;47.454;18.918;2023-04-28T01:28:07;0.59;86.04
67603;DHT22;54417;47.454;18.918;2023-04-28T01:33:11;0.50;86.65
67603;DHT22;54417;47.454;18.918;2023-04-28T01:38:21;0.45;87.29
67603;DHT22;54417;47.454;18.918;2023-04-28T01:43:31;0.40;87.27
67603;DHT22;54417;47.454;18.918;2023-04-28T01:48:40;0.30;87.78
67603;DHT22;54417;47.454;18.918;2023-04-28T01:53:44;0.21;87.38
67603;DHT22;54417;47.454;18.918;2023-04-28T01:58:49;0.17;86.84
67603;DHT22;54417;47.454;18.918;2023-04-28T02:03:58;0.17;86.85
67603;DHT22;54417;47.454;18.918;2023-04-28T02:09:07;0.04;87.33
67603;DHT22;54417;47.454;18.918;2023-04-28T02:14:17;-0.06;87.25
67603;DHT22;54417;47.454;18.918;2023-04-28T02:19:21;-0.13;87.50
67603;DHT22;54417;47.454;18.918;2023-04-28T02:24:25;-0.13;87.26
67603;DHT22;54417;47.454;18.918;2023-04-28T02:29:35;-0.21;87.48
67603;DHT22;54417;47.454;18.918;2023-04-28T02:34:39;-0.27;87.52
67603;DHT22;54417;47.454;18.918;2023-04-28T02:39:47;-0.32;87.95
67603;DHT22;54417;47.454;18.918;2023-04-28T02:44:58;-0.28;87.99
67603;DHT22;54417;47.454;18.918;2023-04-28T02:50:01;-0.27;87.75
67603;DHT22;54417;47.454;18.918;2023-04-28T02:55:06;-0.35;88.11
67603;DHT22;54417;47.454;18.918;2023-04-28T03:00:17;-0.39;88.02
67603;DHT22;54417;47.454;18.918;2023-04-28T03:05:23;-0.47;88.26
67603;DHT22;54417;47.454;18.918;2023-04-28T03:10:27;-0.49;88.53
67603;DHT22;54417;47.454;18.918;2023-04-28T03:15:32;-0.37;88.25
67603;DHT22;54417;47.454;18.918;2023-04-28T03:20:35;-0.41;88.32
67603;DHT22;54417;47.454;18.918;2023-04-28T03:25:39;-0.52;88.58
67603;DHT22;54417;47.454;18.918;2023-04-28T03:30:49;-0.48;88.76
67603;DHT22;54417;47.454;18.918;2023-04-28T03:35:54;-0.52;88.92
67603;DHT22;54417;47.454;18.918;2023-04-28T03:40:58;-0.49;88.84
67603;DHT22;54417;47.454;18.918;2023-04-28T03:46:14;-0.44;88.86
67603;DHT22;54417;47.454;18.918;2023-04-28T03:51:23;-0.32;88.81
67603;DHT22;54417;47.454;18.918;2023-04-28T03:56:32;-0.24;88.76
67603;DHT22;54417;47.454;18.918;2023-04-28T04:01:44;-0.08;88.85
67603;DHT22;54417;47.454;18.918;2023-04-28T04:06:48;0.04;88.47
67603;DHT22;54417;47.454;18.918;2023-04-28T04:11:57;0.30;88.42
67603;DHT22;54417;47.454;18.918;2023-04-28T04:17:04;0.52;87.69
67603;DHT22;54417;47.454;18.918;2023-04-28T04:22:09;0.82;87.07
67603;DHT22;54417;47.454;18.918;2023-04-28T04:27:18;1.17;85.78
67603;DHT22;54417;47.454;18.918;2023-04-28T04:32:28;1.57;85.35
67603;DHT22;54417;47.454;18.918;2023-04-28T04:37:32;2.16;84.54
67603;DHT22;54417;47.454;18.918;2023-04-28T04:42:42;2.85;82.08
67603;DHT22;54417;47.454;18.918;2023-04-28T04:47:52;3.33;80.63
67603;DHT22;54417;47.454;18.918;2023-04-28T04:52:56;3.94;78.58
67603;DHT22;54417;47.454;18.918;2023-04-28T04:58:05;4.56;78.19
67603;DHT22;54417;47.454;18.918;2023-04-28T05:03:36;5.09;76.35
67603;DHT22;54417;47.454;18.918;2023-04-28T05:08:45;5.60;74.20
67603;DHT22;54417;47.454;18.918;2023-04-28T05:13:54;6.00;71.77
67603;DHT22;54417;47.454;18.918;2023-04-28T05:19:05;6.61;70.82
67603;DHT22;54417;47.454;18.918;2023-04-28T05:24:14;7.14;69.77
67603;DHT22;54417;47.454;18.918;2023-04-28T05:29:23;7.65;67.39
67603;DHT22;54417;47.454;18.918;2023-04-28T05:34:34;7.94;67.63
67603;DHT22;54417;47.454;18.918;2023-04-28T05:39:43;8.07;66.54
67603;DHT22;54417;47.454;18.918;2023-04-28T05:44:52;8.37;66.69
67603;DHT22;54417;47.454;18.918;2023-04-28T05:50:03;8.33;64.29
67603;DHT22;54417;47.454;18.918;2023-04-28T05:55:12;8.96;63.79
67603;DHT22;54417;47.454;18.918;2023-04-28T06:00:16;9.30;61.54
67603;DHT22;54417;47.454;18.918;2023-04-28T06:05:27;9.68;61.36
67603;DHT22;54417;47.454;18.918;2023-04-28T06:10:36;10.06;60.26
67603;DHT22;54417;47.454;18.918;2023-04-28T06:15:45;10.54;59.05
67603;DHT22;54417;47.454;18.918;2023-04-28T06:20:55;10.73;58.51
67603;DHT22;54417;47.454;18.918;2023-04-28T06:25:59;11.11;58.18
67603;DHT22;54417;47.454;18.918;2023-04-28T06:31:08;11.32;57.92
67603;DHT22;54417;47.454;18.918;2023-04-28T06:36:20;11.69;54.78
67603;DHT22;54417;47.454;18.918;2023-04-28T06:41:24;11.73;52.62
67603;DHT22;54417;47.454;18.918;2023-04-28T06:46:28;11.91;54.90
67603;DHT22;54417;47.454;18.918;2023-04-28T06:51:33;12.22;51.55
67603;DHT22;54417;47.454;18.918;2023-04-28T06:56:37;12.35;49.33
67603;DHT22;54417;47.454;18.918;2023-04-28T07:01:46;12.73;49.91
67603;DHT22;54417;47.454;18.918;2023-04-28T07:06:56;13.24;49.16
67603;DHT22;54417;47.454;18.918;2023-04-28T07:12:00;13.61;45.80
67603;DHT22;54417;47.454;18.918;2023-04-28T07:17:10;14.10;45.49
67603;DHT22;54417;47.454;18.918;2023-04-28T07:22:20;13.86;44.84
67603;DHT22;54417;47.454;18.918;2023-04-28T07:27:29;14.03;44.35
67603;DHT22;54417;47.454;18.918;2023-04-28T07:32:38;13.93;46.42
67603;DHT22;54417;47.454;18.918;2023-04-28T07:37:48;14.54;46.95
67603;DHT22;54417;47.454;18.918;2023-04-28T07:42:57;15.01;45.15
67603;DHT22;54417;47.454;18.918;2023-04-28T07:48:01;15.08;45.35
67603;DHT22;54417;47.454;18.918;2023-04-28T07:53:11;15.23;44.39
67603;DHT22;54417;47.454;18.918;2023-04-28T07:58:20;15.22;44.33
67603;DHT22;54417;47.454;18.918;2023-04-28T08:03:29;15.01;45.62
67603;DHT22;54417;47.454;18.918;2023-04-28T08:08:40;15.78;46.48
67603;DHT22;54417;47.454;18.918;2023-04-28T08:13:48;16.07;44.34
67603;DHT22;54417;47.454;18.918;2023-04-28T08:18:52;16.09;40.83
67603;DHT22;54417;47.454;18.918;2023-04-28T08:24:02;16.51;43.09
67603;DHT22;54417;47.454;18.918;2023-04-28T08:29:11;16.26;39.37
67603;DHT22;54417;47.454;18.918;2023-04-28T08:34:20;16.55;40.86
67603;DHT22;54417;47.454;18.918;2023-04-28T08:39:26;16.60;39.17
67603;DHT22;54417;47.454;18.918;2023-04-28T08:44:36;16.83;41.72
67603;DHT22;54417;47.454;18.918;2023-04-28T08:49:41;17.03;41.60
67603;DHT22;54417;47.454;18.918;2023-04-28T08:54:52;17.21;39.39
67603;DHT22;54417;47.454;18.918;2023-04-28T09:00:02;17.46;39.34
67603;DHT22;54417;47.454;18.918;2023-04-28T09:05:12;17.75;38.53
67603;DHT22;54417;47.454;18.918;2023-04-28T09:10:23;17.89;39.03
67603;DHT22;54417;47.454;18.918;2023-04-28T09:15:35;17.96;39.18
67603;DHT22;54417;47.454;18.918;2023-04-28T09:20:39;18.06;38.71
67603;DHT22;54417;47.454;18.918;2023-04-28T09:25:58;18.40;39.07
67603;DHT22;54417;47.454;18.918;2023-04-28T09:31:21;18.84;35.33
67603;DHT22;54417;47.454;18.918;2023-04-28T09:36:30;19.15;34.32
67603;DHT22;54417;47.454;18.918;2023-04-28T09:41:42;19.17;35.51
67603;DHT22;54417;47.454;18.918;2023-04-28T09:46:47;19.46;34.88
67603;DHT22;54417;47.454;18.918;2023-04-28T09:52:11;19.56;35.36
67603;DHT22;54417;47.454;18.918;2023-04-28T09:57:17;19.38;34.49
67603;DHT22;54417;47.454;18.918;2023-04-28T10:02:26;19.30;32.54
67603;DHT22;54417;47.454;18.918;2023-04-28T10:07:38;19.23;34.90
67603;DHT22;54417;47.454;18.918;2023-04-28T10:12:44;19.00;34.57
67603;DHT22;54417;47.454;18.918;2023-04-28T10:17:49;18.54;35.22
67603;DHT22;54417;47.454;18.918;2023-04-28T10:22:59;18.50;34.54
67603;DHT22;54417;47.454;18.918;2023-04-28T10:28:18;18.38;37.72
67603;DHT22;54417;47.454;18.918;2023-04-28T10:33:26;18.20;36.30
67603;DHT22;54417;47.454;18.918;2023-04-28T10:39:08;18.14;35.72
67603;DHT22;54417;47.454;18.918;2023-04-28T10:44:43;18.45;36.00
67603;DHT22;54417;47.454;18.918;2023-04-28T10:50:06;18.87;35.76
67603;DHT22;54417;47.454;18.918;2023-04-28T10:55:31;19.36;34.89
67603;DHT22;54417;47.454;18.918;2023-04-28T11:00:46;19.51;33.03
67603;DHT22;54417;47.454;18.918;2023-04-28T11:06:17;19.91;33.22
67603;DHT22;54417;47.454;18.918;2023-04-28T11:11:23;19.94;32.97
67603;DHT22;54417;47.454;18.918;2023-04-28T11:16:47;19.56;32.73
67603;DHT22;54417;47.454;18.918;2023-04-28T11:21:53;19.49;33.53
67603;DHT22;54417;47.454;18.918;2023-04-28T11:26:58;19.79;35.69
67603;DHT22;54417;47.454;18.918;2023-04-28T11:32:09;20.16;32.96
67603;DHT22;54417;47.454;18.918;2023-04-28T11:37:18;20.06;32.51
67603;DHT22;54417;47.454;18.918;2023-04-28T11:42:28;19.91;35.08
67603;DHT22;54417;47.454;18.918;2023-04-28T11:47:41;20.26;33.37
67603;DHT22;54417;47.454;18.918;2023-04-28T11:52:50;20.30;34.46
67603;DHT22;54417;47.454;18.918;2023-04-28T11:58:18;20.81;33.61
67603;DHT22;54417;47.454;18.918;2023-04-28T12:03:30;20.79;33.91
67603;DHT22;54417;47.454;18.918;2023-04-28T12:08:39;20.42;34.34
67603;DHT22;54417;47.454;18.918;2023-04-28T12:14:05;20.12;34.90
67603;DHT22;54417;47.454;18.918;2023-04-28T12:19:16;20.04;34.39
67603;DHT22;54417;47.454;18.918;2023-04-28T12:24:21;20.08;35.75
67603;DHT22;54417;47.454;18.918;2023-04-28T12:29:39;20.19;35.70
67603;DHT22;54417;47.454;18.918;2023-04-28T12:34:50;20.36;35.96
67603;DHT22;54417;47.454;18.918;2023-04-28T12:39:58;20.42;34.73
67603;DHT22;54417;47.454;18.918;2023-04-28T12:45:08;20.49;34.72
67603;DHT22;54417;47.454;18.918;2023-04-28T12:50:13;20.19;34.95
67603;DHT22;54417;47.454;18.918;2023-04-28T12:55:22;20.28;35.30
67603;DHT22;54417;47.454;18.918;2023-04-28T13:00:30;20.56;34.31
67603;DHT22;54417;47.454;18.918;2023-04-28T13:05:41;21.04;33.15
67603;DHT22;54417;47.454;18.918;2023-04-28T13:10:50;21.05;33.79
67603;DHT22;54417;47.454;18.918;2023-04-28T13:15:54;20.88;33.77
67603;DHT22;54417;47.454;18.918;2023-04-28T13:21:04;20.62;34.51
67603;DHT22;54417;47.454;18.918;2023-04-28T13:26:08;20.30;34.13
67603;DHT22;54417;47.454;18.918;2023-04-28T13:31:17;20.44;35.11
67603;DHT22;54417;47.454;18.918;2023-04-28T13:36:28;20.43;35.59
67603;DHT22;54417;47.454;18.918;2023-04-28T13:41:37;21.14;33.41
67603;DHT22;54417;47.454;18.918;2023-04-28T13:46:46;21.48;33.39
67603;DHT22;54417;47.454;18.918;2023-04-28T13:51:51;21.60;34.12
67603;DHT22;54417;47.454;18.918;2023-04-28T13:56:55;21.27;34.48
67603;DHT22;54417;47.454;18.918;2023-04-28T14:01:59;20.88;34.73
67603;DHT22;54417;47.454;18.918;2023-04-28T14:07:09;20.63;36.25
67603;DHT22;54417;47.454;18.918;2023-04-28T14:12:13;20.42;36.46
67603;DHT22;54417;47.454;18.918;2023-04-28T14:17:17;20.39;36.64
67603;DHT22;54417;47.454;18.918;2023-04-28T14:22:27;19.91;37.85
67603;DHT22;54417;47.454;18.918;2023-04-28T14:27:36;20.15;37.86
67603;DHT22;54417;47.454;18.918;2023-04-28T14:32:45;20.12;37.36
67603;DHT22;54417;47.454;18.918;2023-04-28T14:37:50;20.19;36.71
67603;DHT22;54417;47.454;18.918;2023-04-28T14:42:59;20.53;36.78
67603;DHT22;54417;47.454;18.918;2023-04-28T14:48:08;20.25;38.14
67603;DHT22;54417;47.454;18.918;2023-04-28T14:53:19;20.14;38.27
67603;DHT22;54417;47.454;18.918;2023-04-28T14:58:27;19.98;38.27
67603;DHT22;54417;47.454;18.918;2023-04-28T15:03:36;19.89;39.47
67603;DHT22;54417;47.454;18.918;2023-04-28T15:08:41;19.89;38.27
67603;DHT22;54417;47.454;18.918;2023-04-28T15:13:50;19.67;38.66
67603;DHT22;54417;47.454;18.918;2023-04-28T15:18:59;19.37;39.95
67603;DHT22;54417;47.454;18.918;2023-04-28T15:24:09;19.16;40.16
67603;DHT22;54417;47.454;18.918;2023-04-28T15:29:18;18.71;40.98
67603;DHT22;54417;47.454;18.918;2023-04-28T15:34:26;18.13;41.36
67603;DHT22;54417;47.454;18.918;2023-04-28T15:39:39;17.92;42.46
67603;DHT22;54417;47.454;18.918;2023-04-28T15:44:48;17.76;43.93
67603;DHT22;54417;47.454;18.918;2023-04-28T15:49:58;17.48;43.74
67603;DHT22;54417;47.454;18.918;2023-04-28T15:55:08;17.48;44.22
67603;DHT22;54417;47.454;18.918;2023-04-28T16:00:17;17.35;44.61
67603;DHT22;54417;47.454;18.918;2023-04-28T16:05:21;17.28;44.88
67603;DHT22;54417;47.454;18.918;2023-04-28T16:10:31;17.21;45.53
67603;DHT22;54417;47.454;18.918;2023-04-28T16:15:40;17.10;45.05
67603;DHT22;54417;47.454;18.918;2023-04-28T16:20:49;17.02;45.77
67603;DHT22;54417;47.454;18.918;2023-04-28T16:25:59;16.83;45.71
67603;DHT22;54417;47.454;18.918;2023-04-28T16:31:09;16.79;46.17
67603;DHT22;54417;47.454;18.918;2023-04-28T16:36:18;16.69;47.18
67603;DHT22;54417;47.454;18.918;2023-04-28T16:41:29;16.65;47.33
67603;DHT22;54417;47.454;18.918;2023-04-28T16:46:37;16.46;48.01
67603;DHT22;54417;47.454;18.918;2023-04-28T16:51:54;16.32;49.27
67603;DHT22;54417;47.454;18.918;2023-04-28T16:57:00;16.19;50.35
67603;DHT22;54417;47.454;18.918;2023-04-28T17:02:10;16.00;51.63
67603;DHT22;54417;47.454;18.918;2023-04-28T17:07:19;15.96;51.10
67603;DHT22;54417;47.454;18.918;2023-04-28T17:12:27;15.78;50.71
67603;DHT22;54417;47.454;18.918;2023-04-28T17:17:36;15.70;51.49
67603;DHT22;54417;47.454;18.918;2023-04-28T17:22:45;15.42;52.36
67603;DHT22;54417;47.454;18.918;2023-04-28T17:27:56;15.35;52.50
67603;DHT22;54417;47.454;18.918;2023-04-28T17:33:07;15.19;52.27
67603;DHT22;54417;47.454;18.918;2023-04-28T17:38:22;14.99;52.64
67603;DHT22;54417;47.454;18.918;2023-04-28T17:43:34;15.02;53.35
67603;DHT22;54417;47.454;18.918;2023-04-28T17:48:44;14.96;53.09
67603;DHT22;54417;47.454;18.918;2023-04-28T17:53:53;14.91;52.93
67603;DHT22;54417;47.454;18.918;2023-04-28T17:59:04;14.95;53.68
67603;DHT22;54417;47.454;18.918;2023-04-28T18:04:10;14.91;54.15
67603;DHT22;54417;47.454;18.918;2023-04-28T18:09:14;14.91;55.20
67603;DHT22;54417;47.454;18.918;2023-04-28T18:14:19;14.77;56.81
67603;DHT22;54417;47.454;18.918;2023-04-28T18:19:28;14.67;61.17
67603;DHT22;54417;47.454;18.918;2023-04-28T18:24:37;14.59;66.63
67603;DHT22;54417;47.454;18.918;2023-04-28T18:29:47;14.44;65.99
67603;DHT22;54417;47.454;18.918;2023-04-28T18:34:56;14.33;70.41
67603;DHT22;54417;47.454;18.918;2023-04-28T18:40:05;14.02;72.15
67603;DHT22;54417;47.454;18.918;2023-04-28T18:45:15;13.85;73.87
67603;DHT22;54417;47.454;18.918;2023-04-28T18:50:24;13.69;75.16
67603;DHT22;54417;47.454;18.918;2023-04-28T18:55:33;13.40;73.37
67603;DHT22;54417;47.454;18.918;2023-04-28T19:00:43;13.28;76.14
67603;DHT22;54417;47.454;18.918;2023-04-28T19:05:52;13.16;72.78
67603;DHT22;54417;47.454;18.918;2023-04-28T19:11:01;13.10;71.91
67603;DHT22;54417;47.454;18.918;2023-04-28T19:16:11;12.85;75.22
67603;DHT22;54417;47.454;18.918;2023-04-28T19:21:20;12.72;77.09
67603;DHT22;54417;47.454;18.918;2023-04-28T19:26:28;12.53;78.68
67603;DHT22;54417;47.454;18.918;2023-04-28T19:31:38;12.60;77.98
67603;DHT22;54417;47.454;18.918;2023-04-28T19:36:47;12.56;79.14
67603;DHT22;54417;47.454;18.918;2023-04-28T19:41:51;12.51;79.60
67603;DHT22;54417;47.454;18.918;2023-04-28T19:46:57;12.58;80.47
67603;DHT22;54417;47.454;18.918;2023-04-28T19:52:02;12.59;81.51
67603;DHT22;54417;47.454;18.918;2023-04-28T19:57:11;12.42;81.08
67603;DHT22;54417;47.454;18.918;2023-04-28T20:02:21;12.42;82.10
67603;DHT22;54417;47.454;18.918;2023-04-28T20:07:30;12.38;81.11
67603;DHT22;54417;47.454;18.918;2023-04-28T20:12:39;12.38;81.42
67603;DHT22;54417;47.454;18.918;2023-04-28T20:17:49;12.25;82.75
67603;DHT22;54417;47.454;18.918;2023-04-28T20:22:53;12.24;82.72
67603;DHT22;54417;47.454;18.918;2023-04-28T20:28:02;12.27;82.73
67603;DHT22;54417;47.454;18.918;2023-04-28T20:33:12;12.28;81.75
67603;DHT22;54417;47.454;18.918;2023-04-28T20:38:15;12.29;82.47
67603;DHT22;54417;47.454;18.918;2023-04-28T20:43:21;12.32;81.75
67603;DHT22;54417;47.454;18.918;2023-04-28T20:48:31;12.28;80.77
67603;DHT22;54417;47.454;18.918;2023-04-28T20:53:40;12.34;78.50
67603;DHT22;54417;47.454;18.918;2023-04-28T20:58:49;12.35;75.29
67603;DHT22;54417;47.454;18.918;2023-04-28T21:03:59;12.41;77.36
67603;DHT22;54417;47.454;18.918;2023-04-28T21:09:08;12.45;77.69
67603;DHT22;54417;47.454;18.918;2023-04-28T21:14:17;12.45;77.71
67603;DHT22;54417;47.454;18.918;2023-04-28T21:19:23;12.48;79.16
67603;DHT22;54417;47.454;18.918;2023-04-28T21:24:27;12.38;80.62
67603;DHT22;54417;47.454;18.918;2023-04-28T21:29:35;12.25;81.13
67603;DHT22;54417;47.454;18.918;2023-04-28T21:34:47;12.24;81.49
67603;DHT22;54417;47.454;18.918;2023-04-28T21:39:51;12.20;81.62
67603;DHT22;54417;47.454;18.918;2023-04-28T21:44:54;12.11;80.63
67603;DHT22;54417;47.454;18.918;2023-04-28T21:50:06;12.18;81.37
67603;DHT22;54417;47.454;18.918;2023-04-28T21:55:15;12.16;82.19
67603;DHT22;54417;47.454;18.918;2023-04-28T22:00:35;11.90;83.36
67603;DHT22;54417;47.454;18.918;2023-04-28T22:05:44;11.87;82.88
67603;DHT22;54417;47.454;18.918;2023-04-28T22:10:53;11.84;83.09
67603;DHT22;54417;47.454;18.918;2023-04-28T22:16:02;11.67;82.18
67603;DHT22;54417;47.454;18.918;2023-04-28T22:21:07;11.66;83.12
67603;DHT22;54417;47.454;18.918;2023-04-28T22:26:12;11.53;83.32
67603;DHT22;54417;47.454;18.918;2023-04-28T22:31:21;11.56;83.82
67603;DHT22;54417;47.454;18.918;2023-04-28T22:36:31;11.60;83.70
67603;DHT22;54417;47.454;18.918;2023-04-28T22:41:40;11.55;83.77
67603;DHT22;54417;47.454;18.918;2023-04-28T22:46:43;11.40;83.87
67603;DHT22;54417;47.454;18.918;2023-04-28T22:51:49;11.33;83.62
67603;DHT22;54417;47.454;18.918;2023-04-28T22:56:52;11.36;83.82
67603;DHT22;54417;47.454;18.918;2023-04-28T23:02:01;11.55;82.99
67603;DHT22;54417;47.454;18.918;2023-04-28T23:07:07;11.42;83.82
67603;DHT22;54417;47.454;18.918;2023-04-28T23:12:16;11.25;84.46
67603;DHT22;54417;47.454;18.918;2023-04-28T23:17:24;11.32;84.51
67603;DHT22;54417;47.454;18.918;2023-04-28T23:22:35;11.19;84.30
67603;DHT22;54417;47.454;18.918;2023-04-28T23:27:43;11.05;84.21
67603;DHT22;54417;47.454;18.918;2023-04-28T23:32:52;11.10;84.18
67603;DHT22;54417;47.454;18.918;2023-04-28T23:37:57;11.18;80.77
67603;DHT22;54417;47.454;18.918;2023-04-28T23:43:06;11.15;82.35
67603;DHT22;54417;47.454;18.918;2023-04-28T23:48:15;11.14;83.40
67603;DHT22;54417;47.454;18.918;2023-04-28T23:53:20;11.16;81.07
67603;DHT22;54417;47.454;18.918;2023-04-28T23:58:28;11.11;81.61
